Time;durP1;ratioP1;P1;durP2;ratioP2;P2;SDS_P1;SDS_P2;PMS_P1;PMS_P2;Temp;Humidity;BMP_temperature;BMP_pressure;BME280_temperature;BME280_humidity;BME280_pressure;Samples;Min_cycle;Max_cycle;Signal;HPM_P1;HPM_P2
2022/06/11 00:01:47;;;;;;;3.58;1.55;;;17.30;99.90;;;;;;6227215;22;20404;-95
2022/06/11 00:04:23;;;;;;;2.83;1.30;;;17.30;99.90;;;;;;6226320;22;20172;-95
2022/06/11 00:07:42;;;;;;;;;;;;;;;;;;;;;
2022/06/11 00:10:40;;;;;;;4.68;1.60;;;17.30;99.90;;;;;;6275535;22;20012;-94
2022/06/11 00:13:51;;;;;;;2.85;1.30;;;17.30;99.90;;;;;;6253311;22;20020;-94
2022/06/11 00:21:42;;;;;;;3.60;1.60;;;17.20;99.90;;;;;;6216966;22;20071;-93
2022/06/11 00:24:08;;;;;;;2.72;1.50;;;17.20;99.90;;;;;;6191209;23;20466;-93
2022/06/11 00:26:42;;;;;;;3.70;1.20;;;17.20;99.90;;;;;;6191272;23;20009;-93
2022/06/11 00:29:12;;;;;;;2.20;1.20;;;17.10;99.90;;;;;;6191452;23;20021;-94
2022/06/11 00:31:50;;;;;;;2.90;1.15;;;17.10;99.90;;;;;;6191293;23;20496;-93
2022/06/11 00:34:16;;;;;;;2.78;1.13;;;17.00;99.90;;;;;;6191254;23;20103;-93
2022/06/11 00:36:43;;;;;;;1.92;0.95;;;17.00;99.90;;;;;;6191434;23;20017;-93
2022/06/11 00:39:10;;;;;;;2.97;1.42;;;16.90;99.90;;;;;;6191024;23;20036;-93
2022/06/11 00:41:39;;;;;;;3.13;1.20;;;16.80;99.90;;;;;;6215949;23;20020;-91
2022/06/11 00:44:05;;;;;;;2.28;1.10;;;16.80;99.90;;;;;;6191182;23;20414;-93
2022/06/11 00:46:39;;;;;;;;;;;16.70;99.90;;;;;;6191149;23;20373;-92
2022/06/11 00:49:14;;;;;;;3.80;1.38;;;16.60;99.90;;;;;;6191132;23;19916;-94
2022/06/11 00:51:40;;;;;;;3.35;1.30;;;16.60;99.90;;;;;;6191021;23;20071;-93
2022/06/11 00:54:15;;;;;;;3.03;1.38;;;16.60;99.90;;;;;;6191280;23;20021;-94
2022/06/11 00:56:57;;;;;;;3.55;1.27;;;16.60;99.90;;;;;;6190832;23;20013;-92
2022/06/11 00:59:37;;;;;;;3.42;1.25;;;16.60;99.90;;;;;;6190973;23;20027;-92
2022/06/11 01:02:08;;;;;;;3.42;1.50;;;16.60;99.90;;;;;;6191016;23;20020;-93
2022/06/11 01:04:48;;;;;;;3.75;1.35;;;16.60;99.90;;;;;;6190534;23;20016;-92
2022/06/11 01:07:48;;;;;;;;;;;;;;;;;;;;;
2022/06/11 01:10:50;;;;;;;5.18;1.58;;;16.50;99.90;;;;;;6216269;23;20020;-93
2022/06/11 01:13:30;;;;;;;3.40;1.42;;;16.50;99.90;;;;;;6190821;23;20028;-94
2022/06/11 01:16:04;;;;;;;4.78;1.83;;;16.60;99.90;;;;;;6190906;23;20017;-93
2022/06/11 01:19:04;;;;;;;3.50;1.70;;;16.50;99.90;;;;;;6190738;23;20095;-94
2022/06/11 01:21:48;;;;;;;4.85;2.25;;;16.50;99.90;;;;;;6169316;23;20507;-93
2022/06/11 01:24:26;;;;;;;4.78;1.65;;;16.50;99.90;;;;;;6190769;23;20095;-95
2022/06/11 01:27:36;;;;;;;3.88;1.40;;;16.50;99.90;;;;;;6190393;23;20023;-92
2022/06/11 01:30:19;;;;;;;5.22;1.30;;;16.50;99.90;;;;;;6204958;23;20016;-92
2022/06/11 01:33:03;;;;;;;3.28;0.95;;;16.50;99.90;;;;;;6191825;23;20013;-95
2022/06/11 01:35:42;;;;;;;2.58;1.20;;;16.50;99.90;;;;;;6191803;23;20021;-96
2022/06/11 01:38:38;;;;;;;3.03;1.13;;;16.50;99.90;;;;;;6191404;23;20048;-96
2022/06/11 01:41:16;;;;;;;2.38;0.82;;;16.50;99.90;;;;;;6192593;23;20406;-92
2022/06/11 01:43:45;;;;;;;2.20;0.90;;;16.50;99.90;;;;;;6191501;23;20024;-93
2022/06/11 01:46:31;;;;;;;3.67;1.20;;;16.50;99.90;;;;;;6191450;23;20012;-93
2022/06/11 01:49:05;;;;;;;4.78;0.90;;;16.50;99.90;;;;;;6192915;23;20017;-92
2022/06/11 01:51:49;;;;;;;4.47;1.23;;;16.50;99.90;;;;;;6190855;23;20017;-93
2022/06/11 01:54:36;;;;;;;4.13;0.93;;;16.50;99.90;;;;;;6190405;23;20442;-93
2022/06/11 01:57:25;;;;;;;3.08;0.60;;;16.50;99.90;;;;;;6190512;23;20454;-93
2022/06/11 02:00:16;;;;;;;2.30;0.60;;;16.40;99.90;;;;;;6190468;23;20091;-96
2022/06/11 02:03:12;;;;;;;1.67;0.50;;;16.40;99.90;;;;;;6208664;23;20021;-94
2022/06/11 02:05:45;;;;;;;2.45;0.80;;;16.30;99.90;;;;;;6193667;23;20020;-93
2022/06/11 02:08:25;;;;;;;3.00;0.60;;;16.40;99.90;;;;;;6190800;23;20025;-92
2022/06/11 02:11:26;;;;;;;2.65;0.73;;;16.30;99.90;;;;;;6190462;23;20027;-94
2022/06/11 02:14:10;;;;;;;2.58;0.60;;;16.30;99.90;;;;;;6190508;23;20454;-92
2022/06/11 02:17:08;;;;;;;4.85;1.23;;;16.30;99.90;;;;;;6194153;23;20441;-89
2022/06/11 02:19:53;;;;;;;4.60;0.80;;;16.20;99.90;;;;;;6196277;23;20024;-91
2022/06/11 02:22:25;;;;;;;2.72;0.60;;;16.20;99.90;;;;;;6189913;23;20468;-95
2022/06/11 02:25:09;;;;;;;2.72;0.82;;;16.20;99.90;;;;;;6190258;23;20020;-93
2022/06/11 02:27:37;;;;;;;3.17;0.82;;;16.20;99.90;;;;;;6190257;23;20017;-96
2022/06/11 02:30:06;;;;;;;3.78;0.90;;;16.10;99.90;;;;;;6215298;23;20063;-93
2022/06/11 02:32:32;;;;;;;2.30;0.57;;;16.10;99.90;;;;;;6189951;23;20013;-94
2022/06/11 02:35:04;;;;;;;2.38;0.70;;;16.10;99.90;;;;;;6190360;23;20017;-92
2022/06/11 02:37:37;;;;;;;3.00;0.63;;;16.20;99.90;;;;;;6194301;23;20068;-95
2022/06/11 02:40:38;;;;;;;2.08;0.60;;;16.10;99.90;;;;;;6193483;23;20082;-93
2022/06/11 02:43:21;;;;;;;4.30;0.80;;;16.10;99.90;;;;;;6211803;23;20032;-93
2022/06/11 02:45:47;;;;;;;3.85;0.80;;;16.10;99.90;;;;;;6216624;23;20012;-91
2022/06/11 02:48:14;;;;;;;2.20;0.70;;;16.10;99.90;;;;;;6215340;23;20048;-93
2022/06/11 02:51:01;;;;;;;;;;;16.00;99.90;;;;;;6191725;23;20099;-91
2022/06/11 02:53:40;;;;;;;;;;;;;;;;;;;;;
2022/06/11 02:56:29;;;;;;;2.63;0.60;;;16.00;99.90;;;;;;6225540;23;20021;-94
2022/06/11 02:59:15;;;;;;;1.88;0.82;;;16.10;99.90;;;;;;6190289;23;20087;-90
2022/06/11 03:01:41;;;;;;;2.33;0.32;;;16.00;99.90;;;;;;6189327;23;20027;-88
2022/06/11 03:04:59;;;;;;;2.85;0.60;;;16.00;99.90;;;;;;6214930;23;20017;-94
2022/06/11 03:11:21;;;;;;;4.18;0.90;;;16.00;99.90;;;;;;6218068;23;20507;-92
2022/06/11 03:14:28;;;;;;;3.08;0.57;;;16.00;99.90;;;;;;6190529;23;20346;-93
2022/06/11 03:17:09;;;;;;;2.75;0.52;;;15.90;99.90;;;;;;6218006;23;20048;-96
2022/06/11 03:19:48;;;;;;;1.60;0.52;;;15.90;99.90;;;;;;6195654;23;20461;-92
2022/06/11 03:22:20;;;;;;;3.55;1.00;;;15.90;99.90;;;;;;6199277;23;20101;-92
2022/06/11 03:24:51;;;;;;;3.40;0.75;;;15.90;99.90;;;;;;6221575;23;20074;-96
2022/06/11 03:27:17;;;;;;;4.30;0.93;;;15.90;99.90;;;;;;6194674;23;20060;-94
2022/06/11 03:29:44;;;;;;;3.17;0.80;;;15.90;99.90;;;;;;6195219;23;20012;-96
2022/06/11 03:32:25;;;;;;;2.22;0.60;;;15.90;99.90;;;;;;6195140;23;20012;-94
2022/06/11 03:34:51;;;;;;;2.45;0.68;;;15.80;99.90;;;;;;6198252;23;20022;-93
2022/06/11 03:37:18;;;;;;;3.67;0.93;;;15.80;99.90;;;;;;6199778;23;20051;-91
2022/06/11 03:39:44;;;;;;;4.00;0.70;;;15.80;99.90;;;;;;6196472;23;20054;-90
2022/06/11 03:42:10;;;;;;;2.22;0.77;;;15.80;99.90;;;;;;6199134;23;20016;-90
2022/06/11 03:44:36;;;;;;;2.28;0.57;;;15.80;99.90;;;;;;6197092;23;20008;-93
2022/06/11 03:47:03;;;;;;;2.58;0.70;;;15.80;99.90;;;;;;6220712;23;20013;-95
2022/06/11 03:49:29;;;;;;;1.95;0.60;;;15.80;99.90;;;;;;6196328;23;20020;-93
2022/06/11 03:51:55;;;;;;;2.58;0.70;;;15.80;99.90;;;;;;6195340;23;20042;-92
2022/06/11 03:54:24;;;;;;;3.58;1.00;;;15.80;99.90;;;;;;6194756;23;20412;-94
2022/06/11 03:57:11;;;;;;;4.15;0.93;;;15.80;99.90;;;;;;6195600;23;20052;-95
2022/06/11 04:00:06;;;;;;;2.13;0.68;;;15.80;99.90;;;;;;6196821;23;20337;-93
2022/06/11 04:02:32;;;;;;;5.97;0.82;;;15.80;99.90;;;;;;6197044;23;20023;-91
2022/06/11 04:04:57;;;;;;;2.90;0.85;;;15.70;99.90;;;;;;6197358;23;20508;-93
2022/06/11 04:07:26;;;;;;;3.65;0.70;;;15.70;99.90;;;;;;6197931;23;20016;-94
2022/06/11 04:09:52;;;;;;;2.45;0.90;;;15.70;99.90;;;;;;6196897;23;20514;-94
2022/06/11 04:12:18;;;;;;;1.83;0.75;;;15.70;99.90;;;;;;6197899;23;20091;-92
2022/06/11 04:14:45;;;;;;;;;;;15.60;99.90;;;;;;6199043;23;20048;-89
2022/06/11 04:17:24;;;;;;;4.25;0.65;;;15.60;99.90;;;;;;6200570;23;19915;-95
2022/06/11 04:19:55;;;;;;;2.10;0.60;;;15.60;99.90;;;;;;6207193;23;20234;-90
2022/06/11 04:22:24;;;;;;;2.17;0.73;;;15.60;99.90;;;;;;6231715;23;20012;-89
2022/06/11 04:24:53;;;;;;;3.63;0.80;;;15.60;99.90;;;;;;6208523;23;20028;-89
2022/06/11 04:27:24;;;;;;;4.35;1.17;;;15.60;99.90;;;;;;6233398;23;20023;-92
2022/06/11 04:29:56;;;;;;;5.18;1.10;;;15.70;99.90;;;;;;6206938;23;20221;-90
2022/06/11 04:32:24;;;;;;;4.63;1.00;;;15.60;99.90;;;;;;6231750;23;20016;-90
2022/06/11 04:34:52;;;;;;;3.10;0.75;;;15.60;99.90;;;;;;6225149;23;20020;-89
2022/06/11 04:37:22;;;;;;;3.65;1.27;;;15.70;99.90;;;;;;6200603;23;20012;-91
2022/06/11 04:42:39;;;;;;;5.53;1.10;;;15.70;99.90;;;;;;6229113;22;20024;-88
2022/06/11 04:45:39;;;;;;;2.85;0.60;;;15.70;99.90;;;;;;6190428;23;20102;-89
2022/06/11 04:48:08;;;;;;;3.88;0.93;;;15.80;99.90;;;;;;6165389;23;20442;-88
2022/06/11 04:50:34;;;;;;;3.78;0.73;;;15.80;99.90;;;;;;6189857;23;20131;-90
2022/06/11 04:53:00;;;;;;;;;;;15.80;99.90;;;;;;6165660;23;20020;-89
2022/06/11 04:55:26;;;;;;;4.93;0.95;;;15.80;99.90;;;;;;6165032;23;20375;-89
2022/06/11 04:58:13;;;;;;;3.60;0.88;;;15.80;99.90;;;;;;6165326;23;20017;-90
2022/06/11 05:01:17;;;;;;;3.23;0.70;;;15.90;99.90;;;;;;6165889;23;20013;-90
2022/06/11 05:04:03;;;;;;;3.42;0.70;;;15.90;99.90;;;;;;6165878;23;20287;-93
2022/06/11 05:06:32;;;;;;;3.13;1.00;;;15.90;99.90;;;;;;6165511;23;20021;-92
2022/06/11 05:08:58;;;;;;;3.33;1.02;;;16.00;99.90;;;;;;6166822;23;20044;-90
2022/06/11 05:11:24;;;;;;;3.45;0.90;;;16.00;99.90;;;;;;6168054;23;20021;-91
2022/06/11 05:13:50;;;;;;;3.42;1.00;;;16.20;99.90;;;;;;6171147;23;20043;-91
2022/06/11 05:16:18;;;;;;;3.97;0.90;;;16.30;99.90;;;;;;6198402;23;20061;-91
2022/06/11 05:18:44;;;;;;;5.65;0.85;;;16.60;99.90;;;;;;6175141;23;20020;-92
2022/06/11 05:21:10;;;;;;;5.55;1.50;;;17.00;99.90;;;;;;6169045;23;20421;-91
2022/06/11 05:23:36;;;;;;;3.63;1.00;;;17.20;99.90;;;;;;6165543;23;20068;-89
2022/06/11 05:26:02;;;;;;;3.72;0.80;;;17.20;99.90;;;;;;6216382;23;20075;-91
2022/06/11 05:28:30;;;;;;;5.07;1.15;;;17.10;99.90;;;;;;6165005;23;20032;-89
2022/06/11 05:30:56;;;;;;;5.50;0.98;;;17.10;99.90;;;;;;6164858;23;20016;-91
2022/06/11 05:33:38;;;;;;;4.60;1.35;;;17.10;99.90;;;;;;6165079;23;20021;-89
2022/06/11 05:36:07;;;;;;;4.75;1.02;;;17.10;99.90;;;;;;6190330;23;20457;-91
2022/06/11 05:38:34;;;;;;;3.63;1.02;;;17.10;99.90;;;;;;6216063;23;20023;-90
2022/06/11 05:41:00;;;;;;;;;;;17.10;99.90;;;;;;6216370;23;20016;-91
2022/06/11 05:43:26;;;;;;;6.95;1.42;;;17.10;99.90;;;;;;6239464;23;19922;-91
2022/06/11 05:46:01;;;;;;;5.45;0.90;;;17.10;99.90;;;;;;6219956;22;20016;-91
2022/06/11 05:48:39;;;;;;;4.88;1.13;;;17.10;99.90;;;;;;6219808;22;20008;-91
2022/06/11 05:51:06;;;;;;;5.40;1.30;;;17.10;99.90;;;;;;6244711;22;20016;-93
2022/06/11 05:53:36;;;;;;;3.92;1.35;;;17.00;99.90;;;;;;6245124;22;20017;-93
2022/06/11 05:56:03;;;;;;;7.18;1.63;;;17.10;99.90;;;;;;6220073;22;20027;-92
2022/06/11 05:58:34;;;;;;;4.35;1.40;;;17.10;99.90;;;;;;6219798;23;20019;-92
2022/06/11 06:01:01;;;;;;;5.55;1.30;;;17.10;99.90;;;;;;6220037;23;20012;-93
2022/06/11 06:03:42;;;;;;;5.35;1.20;;;17.20;99.90;;;;;;6219966;23;20457;-90
2022/06/11 06:06:08;;;;;;;4.95;1.35;;;17.20;99.90;;;;;;6219389;23;20016;-91
2022/06/11 06:08:33;;;;;;;5.32;0.85;;;17.30;99.90;;;;;;6219360;23;20020;-89
2022/06/11 06:10:59;;;;;;;4.03;1.00;;;17.30;99.90;;;;;;6244730;22;20472;-93
2022/06/11 06:16:09;;;;;;;5.47;1.20;;;17.60;99.90;;;;;;6244723;22;20027;-90
2022/06/11 06:18:34;;;;;;;7.70;1.60;;;17.70;99.90;;;;;;6219415;23;20040;-91
2022/06/11 06:21:00;;;;;;;5.95;1.42;;;17.80;99.90;;;;;;6219297;23;20104;-93
2022/06/11 06:23:26;;;;;;;4.43;1.40;;;18.40;99.90;;;;;;6219556;23;20323;-92
2022/06/11 06:25:52;;;;;;;5.93;1.42;;;18.80;99.90;;;;;;6219551;23;20454;-92
2022/06/11 06:28:17;;;;;;;7.63;1.45;;;18.90;99.90;;;;;;6219261;23;20023;-91
2022/06/11 06:30:43;;;;;;;5.65;1.77;;;18.80;99.90;;;;;;6219444;23;20024;-92
2022/06/11 06:33:09;;;;;;;7.82;1.35;;;18.70;99.90;;;;;;6219264;22;20012;-92
2022/06/11 06:35:38;;;;;;;7.53;1.40;;;18.60;99.90;;;;;;6219314;22;20007;-91
2022/06/11 06:38:04;;;;;;;5.78;1.27;;;18.60;99.90;;;;;;6219758;23;20437;-91
2022/06/11 06:40:29;;;;;;;6.75;1.30;;;18.60;99.90;;;;;;6244898;22;20016;-93
2022/06/11 06:42:55;;;;;;;3.78;1.50;;;18.60;99.90;;;;;;6225522;22;20449;-92
2022/06/11 06:45:23;;;;;;;6.38;1.13;;;18.60;99.90;;;;;;6164350;23;20286;-93
2022/06/11 06:47:49;;;;;;;6.47;1.20;;;18.80;99.90;;;;;;6164305;23;20016;-90
2022/06/11 06:50:15;;;;;;;8.13;1.10;;;18.90;99.90;;;;;;6164377;23;20341;-92
2022/06/11 06:52:41;;;;;;;6.10;1.58;;;18.90;99.90;;;;;;6164426;23;20019;-91
2022/06/11 06:55:07;;;;;;;8.18;1.48;;;18.90;99.90;;;;;;6165230;23;20099;-92
2022/06/11 06:57:52;;;;;;;4.45;1.08;;;19.00;99.90;;;;;;6190455;23;20442;-92
2022/06/11 07:00:18;;;;;;;6.32;1.30;;;19.20;99.90;;;;;;6187808;23;20048;-92
2022/06/11 07:02:44;;;;;;;;;;;19.40;99.90;;;;;;6164028;23;20012;-91
2022/06/11 07:05:12;;;;;;;4.90;1.40;;;19.70;99.90;;;;;;6164356;23;19969;-91
2022/06/11 07:07:38;;;;;;;7.10;1.90;;;19.70;99.90;;;;;;6164278;23;20015;-94
2022/06/11 07:10:06;;;;;;;6.65;1.50;;;19.80;99.90;;;;;;6215783;23;20021;-90
2022/06/11 07:12:32;;;;;;;7.63;1.90;;;19.80;99.90;;;;;;6189335;23;20038;-93
2022/06/11 07:14:58;;;;;;;9.30;2.38;;;19.90;99.90;;;;;;6164084;23;20020;-92
2022/06/11 07:17:26;;;;;;;4.13;1.20;;;20.20;99.90;;;;;;6164295;23;20063;-92
2022/06/11 07:20:03;;;;;;;7.07;1.45;;;20.20;99.90;;;;;;6164414;23;20067;-91
2022/06/11 07:22:38;;;;;;;5.40;1.30;;;20.20;99.90;;;;;;6164198;23;20021;-91
2022/06/11 07:25:07;;;;;;;3.53;1.17;;;20.40;99.90;;;;;;6164263;23;20013;-90
2022/06/11 07:27:37;;;;;;;7.45;1.55;;;20.70;99.90;;;;;;6164385;23;20024;-91
2022/06/11 07:30:15;;;;;;;6.88;1.70;;;20.80;99.90;;;;;;6164071;23;20103;-92
2022/06/11 07:32:42;;;;;;;5.78;1.90;;;20.90;99.90;;;;;;6190445;23;20017;-91
2022/06/11 07:35:12;;;;;;;6.63;1.27;;;20.90;99.90;;;;;;6190864;23;20032;-90
2022/06/11 07:37:40;;;;;;;4.43;1.42;;;20.90;99.90;;;;;;6190910;23;20024;-92
2022/06/11 07:40:06;;;;;;;6.05;1.65;;;20.70;99.90;;;;;;6166359;23;20087;-92
2022/06/11 07:42:32;;;;;;;6.18;1.80;;;20.50;99.90;;;;;;6192968;23;20027;-93
2022/06/11 07:44:58;;;;;;;5.53;1.40;;;20.30;99.90;;;;;;6219134;22;20020;-90
2022/06/11 07:50:12;;;;;;;5.55;1.70;;;20.10;99.90;;;;;;6246346;22;20024;-92
2022/06/11 07:52:41;;;;;;;7.15;1.50;;;19.90;99.90;;;;;;6221113;23;20054;-93
2022/06/11 07:55:08;;;;;;;5.97;1.48;;;19.90;99.90;;;;;;6220906;23;20091;-92
2022/06/11 07:57:34;;;;;;;5.50;1.83;;;19.80;99.90;;;;;;6221179;22;20048;-92
2022/06/11 08:00:01;;;;;;;7.35;1.52;;;19.80;99.90;;;;;;6246111;22;20016;-91
2022/06/11 08:02:26;;;;;;;7.50;1.20;;;19.80;99.90;;;;;;6220943;22;20453;-92
2022/06/11 08:04:52;;;;;;;4.55;1.65;;;19.70;99.90;;;;;;6221215;23;20012;-94
2022/06/11 08:07:18;;;;;;;7.40;1.20;;;19.60;99.90;;;;;;6221355;23;20052;-92
2022/06/11 08:09:44;;;;;;;6.35;1.38;;;19.60;99.90;;;;;;6221302;23;20020;-93
2022/06/11 08:12:10;;;;;;;5.28;1.10;;;19.60;99.90;;;;;;6221181;23;20091;-94
2022/06/11 08:14:36;;;;;;;;;;;19.60;99.90;;;;;;6221565;23;20020;-92
2022/06/11 08:17:01;;;;;;;5.88;1.50;;;19.70;99.90;;;;;;6221016;23;19916;-92
2022/06/11 08:19:27;;;;;;;5.22;1.05;;;19.60;99.90;;;;;;6246045;22;20059;-92
2022/06/11 08:21:54;;;;;;;4.78;1.63;;;19.60;99.90;;;;;;6221012;23;20058;-94
2022/06/11 08:24:20;;;;;;;4.70;0.98;;;19.60;99.90;;;;;;6220936;23;20107;-93
2022/06/11 08:26:45;;;;;;;6.05;1.17;;;19.60;99.90;;;;;;6220982;23;20036;-93
2022/06/11 08:29:11;;;;;;;3.58;0.95;;;19.60;99.90;;;;;;6246063;22;20441;-93
2022/06/11 08:31:37;;;;;;;6.97;1.30;;;19.50;99.90;;;;;;6220426;23;20016;-91
2022/06/11 08:34:04;;;;;;;5.72;1.30;;;19.50;99.90;;;;;;6221631;22;20079;-93
2022/06/11 08:36:30;;;;;;;4.78;1.25;;;19.40;99.90;;;;;;6218081;22;20027;-89
2022/06/11 08:38:55;;;;;;;5.43;1.63;;;19.50;99.90;;;;;;6243901;22;20012;-91
2022/06/11 08:41:30;;;;;;;6.25;1.00;;;19.40;99.90;;;;;;6242716;22;20019;-91
2022/06/11 08:44:01;;;;;;;2.63;0.85;;;19.40;99.90;;;;;;6164468;23;20454;-90
2022/06/11 08:46:32;;;;;;;5.85;1.60;;;19.30;99.90;;;;;;6190046;23;20005;-91
2022/06/11 08:49:03;;;;;;;3.88;1.20;;;19.30;99.90;;;;;;6165428;23;20056;-92
2022/06/11 08:51:45;;;;;;;6.43;0.95;;;19.40;99.90;;;;;;6165123;23;20028;-92
2022/06/11 08:54:22;;;;;;;3.72;1.45;;;19.50;99.90;;;;;;6216794;23;20016;-92
2022/06/11 09:03:46;;;;;;;3.35;0.90;;;19.40;99.90;;;;;;6190025;23;20394;-91
2022/06/11 09:06:33;;;;;;;3.30;0.82;;;19.40;99.90;;;;;;6165310;23;20067;-91
2022/06/11 09:09:12;;;;;;;4.35;1.15;;;19.40;99.90;;;;;;6165673;23;20067;-91
2022/06/11 09:23:21;;;;;;;3.97;1.08;;;19.50;99.90;;;;;;6247573;22;20024;-93
2022/06/11 09:26:10;;;;;;;8.80;1.45;;;19.60;99.90;;;;;;6221706;23;20018;-94
2022/06/11 09:28:58;;;;;;;6.28;0.90;;;19.70;99.90;;;;;;6220793;23;20020;-90
2022/06/11 09:31:35;;;;;;;3.90;0.90;;;19.70;99.90;;;;;;6220856;23;20023;-91
2022/06/11 09:34:05;;;;;;;4.32;1.05;;;19.60;99.90;;;;;;6220959;23;20091;-91
2022/06/11 09:36:38;;;;;;;4.63;1.05;;;19.60;99.90;;;;;;6246216;23;20016;-91
2022/06/11 09:39:37;;;;;;;5.63;0.88;;;19.60;99.90;;;;;;6220616;23;20008;-93
2022/06/11 09:42:48;;;;;;;5.65;1.38;;;19.50;99.90;;;;;;6220298;23;20013;-91
2022/06/11 09:45:43;;;;;;;2.97;0.57;;;19.50;99.90;;;;;;6221474;23;20390;-91
2022/06/11 09:48:15;;;;;;;4.70;0.77;;;19.50;99.90;;;;;;6224444;23;20020;-88
2022/06/11 09:50:49;;;;;;;5.43;0.85;;;19.50;99.90;;;;;;6230673;23;20023;-88
2022/06/11 09:53:26;;;;;;;3.95;0.80;;;19.50;99.90;;;;;;6220360;23;20016;-94
2022/06/11 09:56:11;;;;;;;5.63;0.85;;;19.50;99.90;;;;;;6220423;23;20084;-91
2022/06/11 09:58:51;;;;;;;3.40;1.05;;;19.60;99.90;;;;;;6245752;23;20393;-90
2022/06/11 10:01:31;;;;;;;5.47;0.88;;;19.50;99.90;;;;;;6220430;23;20024;-90
2022/06/11 10:04:07;;;;;;;2.72;0.80;;;19.60;99.90;;;;;;6220477;23;20048;-90
2022/06/11 10:06:40;;;;;;;6.03;1.00;;;19.60;99.90;;;;;;6220177;23;20027;-92
2022/06/11 10:09:21;;;;;;;4.38;0.88;;;19.70;99.90;;;;;;6220101;23;20020;-89
2022/06/11 10:12:07;;;;;;;3.40;0.68;;;19.70;99.90;;;;;;6220295;23;20016;-92
2022/06/11 10:15:38;;;;;;;;;;;;;;;;;;;;;
2022/06/11 10:18:23;;;;;;;5.65;0.82;;;19.90;99.90;;;;;;6222434;23;20012;-91
2022/06/11 10:21:19;;;;;;;2.80;0.68;;;19.90;99.90;;;;;;6221566;23;20332;-94
2022/06/11 10:23:58;;;;;;;2.67;0.70;;;19.90;99.90;;;;;;6232805;22;20023;-90
2022/06/11 10:26:51;;;;;;;4.57;0.93;;;19.80;99.90;;;;;;6238188;22;20023;-91
2022/06/11 10:29:40;;;;;;;2.00;0.68;;;19.90;99.90;;;;;;6225588;22;20023;-92
2022/06/11 10:32:41;;;;;;;4.32;0.82;;;20.00;99.90;;;;;;6222336;22;20044;-93
2022/06/11 10:35:21;;;;;;;5.38;0.70;;;19.90;99.90;;;;;;6220598;22;20026;-91
2022/06/11 10:38:23;;;;;;;3.55;0.80;;;19.90;99.90;;;;;;6224722;22;20018;-90
2022/06/11 10:40:52;;;;;;;2.55;0.95;;;20.00;99.90;;;;;;6199857;22;20020;-93
2022/06/11 10:43:41;;;;;;;3.40;0.65;;;20.00;99.90;;;;;;6224706;22;20012;-89
2022/06/11 10:46:11;;;;;;;3.40;0.60;;;20.10;99.90;;;;;;6224849;22;20034;-90
2022/06/11 10:48:38;;;;;;;3.65;0.98;;;20.00;99.90;;;;;;6225180;22;20016;-89
2022/06/11 10:51:27;;;;;;;3.47;0.98;;;20.10;99.90;;;;;;6224549;22;20433;-91
2022/06/11 10:54:21;;;;;;;4.07;0.90;;;20.10;99.90;;;;;;6225182;22;20011;-90
2022/06/11 10:57:01;;;;;;;2.83;0.65;;;20.10;99.90;;;;;;6225492;22;20051;-92
2022/06/11 11:02:10;;;;;;;4.47;1.00;;;20.10;99.90;;;;;;6240295;22;20024;-92
2022/06/11 11:04:42;;;;;;;5.45;0.80;;;20.20;99.90;;;;;;6191176;23;20021;-96
2022/06/11 11:07:19;;;;;;;3.28;0.70;;;20.20;99.90;;;;;;6191641;23;20016;-93
2022/06/11 11:09:46;;;;;;;3.15;0.90;;;20.40;99.90;;;;;;6191763;23;20021;-92
2022/06/11 11:12:22;;;;;;;4.15;0.65;;;20.50;99.90;;;;;;6191777;23;20450;-92
2022/06/11 11:14:59;;;;;;;5.10;0.90;;;20.50;99.90;;;;;;6191989;23;20346;-91
2022/06/11 11:17:31;;;;;;;4.60;0.70;;;20.70;99.90;;;;;;6192260;23;20044;-95
2022/06/11 11:20:30;;;;;;;3.50;0.68;;;20.80;99.90;;;;;;6192427;23;20067;-89
2022/06/11 11:22:59;;;;;;;3.58;0.82;;;21.00;99.90;;;;;;6191595;23;20091;-90
2022/06/11 11:25:33;;;;;;;5.85;1.33;;;21.20;99.90;;;;;;6191425;23;20521;-91
2022/06/11 11:27:59;;;;;;;3.42;0.80;;;21.40;99.90;;;;;;6191517;23;20023;-90
2022/06/11 11:30:34;;;;;;;5.65;0.90;;;21.50;99.90;;;;;;6191483;23;20450;-92
2022/06/11 11:33:27;;;;;;;2.63;0.75;;;21.70;99.90;;;;;;6192014;23;20068;-93
2022/06/11 11:41:04;;;;;;;4.50;1.10;;;22.00;99.80;;;;;;6248261;22;20350;-95
2022/06/11 11:48:48;;;;;;;4.85;0.90;;;22.00;98.60;;;;;;6248105;22;20020;-93
2022/06/11 11:51:25;;;;;;;2.92;0.60;;;22.10;98.30;;;;;;6222058;23;20020;-92
2022/06/11 11:54:21;;;;;;;3.03;0.70;;;22.10;98.00;;;;;;6221574;23;20056;-91
2022/06/11 11:57:05;;;;;;;4.63;0.65;;;22.10;97.00;;;;;;6221557;23;20442;-92
2022/06/11 11:59:42;;;;;;;3.30;0.88;;;22.30;97.00;;;;;;6221778;23;20024;-91
2022/06/11 12:02:24;;;;;;;4.80;0.52;;;22.30;97.10;;;;;;6221538;23;20016;-92
2022/06/11 12:04:59;;;;;;;3.60;0.90;;;22.20;96.30;;;;;;6221594;23;20074;-89
2022/06/11 12:07:35;;;;;;;3.38;0.65;;;22.00;96.30;;;;;;6246677;23;20055;-90
2022/06/11 12:10:25;;;;;;;2.80;0.98;;;22.00;96.40;;;;;;6220178;23;20114;-90
2022/06/11 12:15:29;;;;;;;3.30;0.60;;;21.80;96.70;;;;;;6253268;22;20085;-91
2022/06/11 12:18:16;;;;;;;3.20;0.52;;;21.80;96.10;;;;;;6225865;22;20028;-90
2022/06/11 12:20:47;;;;;;;3.00;0.60;;;21.80;95.60;;;;;;6226641;22;20046;-93
2022/06/11 12:23:33;;;;;;;5.50;0.85;;;21.80;96.10;;;;;;6227310;22;20023;-93
2022/06/11 12:26:27;;;;;;;3.28;0.80;;;21.90;96.20;;;;;;6226661;22;20089;-92
2022/06/11 12:51:30;;;;;;;3.00;0.40;;;22.40;94.30;;;;;;6235661;22;20024;-91
2022/06/11 12:54:07;;;;;;;2.33;0.60;;;22.50;93.20;;;;;;6195708;23;20338;-90
2022/06/11 12:56:49;;;;;;;3.58;0.70;;;22.50;93.30;;;;;;6195221;23;20401;-90
2022/06/11 12:59:28;;;;;;;1.75;0.47;;;22.60;92.40;;;;;;6195235;23;20092;-88
2022/06/11 13:02:09;;;;;;;3.30;0.40;;;22.50;91.10;;;;;;6195326;23;20012;-91
2022/06/11 13:04:50;;;;;;;3.55;0.95;;;22.40;90.80;;;;;;6220173;23;20095;-91
2022/06/11 13:07:37;;;;;;;2.05;0.50;;;22.30;91.90;;;;;;6194951;23;20024;-94
2022/06/11 13:10:27;;;;;;;1.65;0.38;;;22.30;91.80;;;;;;6220103;23;20024;-91
2022/06/11 13:13:43;;;;;;;4.32;0.60;;;22.40;92.00;;;;;;6220089;23;20016;-90
2022/06/11 13:16:31;;;;;;;1.83;0.50;;;22.40;91.50;;;;;;6244863;23;20016;-90
2022/06/11 13:19:23;;;;;;;3.83;0.43;;;22.50;92.00;;;;;;6194431;23;20016;-89
2022/06/11 13:22:13;;;;;;;3.05;0.65;;;22.70;91.70;;;;;;6219779;23;20071;-89
2022/06/11 13:25:12;;;;;;;2.17;0.60;;;22.80;91.70;;;;;;6246620;23;20086;-89
2022/06/11 13:27:53;;;;;;;3.08;0.60;;;22.70;91.30;;;;;;6219927;23;20023;-90
2022/06/11 13:30:28;;;;;;;1.58;0.30;;;22.70;91.30;;;;;;6238598;22;20020;-90
2022/06/11 13:33:39;;;;;;;3.08;0.70;;;22.80;91.70;;;;;;6225331;22;20012;-89
2022/06/11 13:36:13;;;;;;;3.58;0.80;;;22.80;91.40;;;;;;6200515;22;20071;-90
2022/06/11 13:38:57;;;;;;;5.32;1.13;;;22.90;90.80;;;;;;6225475;22;20047;-89
2022/06/11 13:41:26;;;;;;;3.40;0.50;;;22.90;90.80;;;;;;6225289;22;20023;-89
2022/06/11 13:43:52;;;;;;;3.70;0.60;;;22.90;90.60;;;;;;6225598;22;20039;-91
2022/06/11 13:46:39;;;;;;;2.53;0.65;;;23.00;90.40;;;;;;6250616;22;20020;-88
2022/06/11 13:49:40;;;;;;;3.92;0.68;;;23.00;89.40;;;;;;6225300;22;20047;-92
2022/06/11 13:52:16;;;;;;;3.55;0.77;;;23.00;88.80;;;;;;6250537;22;20453;-88
2022/06/11 13:55:11;;;;;;;1.88;0.50;;;23.00;89.30;;;;;;6250327;22;20406;-89
2022/06/11 13:58:12;;;;;;;2.60;0.52;;;23.00;89.00;;;;;;6225047;22;20463;-90
2022/06/11 14:01:08;;;;;;;2.80;0.60;;;23.00;86.50;;;;;;6250377;22;20026;-96
2022/06/11 14:03:56;;;;;;;3.03;0.55;;;23.00;88.00;;;;;;6225684;22;20020;-91
2022/06/11 14:06:23;;;;;;;3.97;0.70;;;23.00;87.60;;;;;;6224840;22;20016;-91
2022/06/11 14:12:00;;;;;;;4.50;0.65;;;23.00;87.20;;;;;;6250741;22;20074;-91
2022/06/11 14:14:40;;;;;;;6.78;0.80;;;23.00;89.30;;;;;;6225689;22;20008;-92
2022/06/11 14:18:00;;;;;;;6.00;0.70;;;23.00;88.70;;;;;;6250761;22;20030;-91
2022/06/11 14:20:35;;;;;;;6.30;0.80;;;23.00;88.00;;;;;;6147527;22;20015;-92
2022/06/11 14:23:25;;;;;;;2.30;0.70;;;22.90;89.00;;;;;;6225565;22;20045;-94
2022/06/11 14:25:56;;;;;;;2.97;0.70;;;22.90;88.70;;;;;;6205595;22;20042;-91
2022/06/11 14:28:23;;;;;;;2.30;0.60;;;22.70;88.40;;;;;;6225360;22;20020;-92
2022/06/11 14:30:48;;;;;;;4.53;0.90;;;22.70;89.20;;;;;;6237685;22;20016;-91
2022/06/11 14:33:15;;;;;;;2.47;0.50;;;22.60;89.80;;;;;;6250578;22;20185;-91
2022/06/11 14:35:49;;;;;;;3.20;1.05;;;22.70;89.50;;;;;;6275942;22;20020;-91
2022/06/11 14:38:31;;;;;;;3.55;0.70;;;22.70;89.00;;;;;;6250388;22;20012;-94
2022/06/11 14:41:09;;;;;;;3.13;0.88;;;22.70;88.80;;;;;;6249778;22;20019;-94
2022/06/11 14:43:57;;;;;;;2.75;0.80;;;22.70;89.70;;;;;;6275776;22;20016;-91
2022/06/11 14:46:42;;;;;;;4.50;0.70;;;22.70;89.10;;;;;;6275478;22;20016;-92
2022/06/11 14:49:23;;;;;;;1.95;0.50;;;22.60;90.00;;;;;;6275773;22;20016;-93
2022/06/11 14:52:04;;;;;;;5.38;0.75;;;22.60;90.00;;;;;;6275995;22;20019;-93
2022/06/11 14:54:47;;;;;;;2.67;0.63;;;22.50;89.60;;;;;;6275694;22;20020;-92
2022/06/11 14:57:38;;;;;;;2.83;0.60;;;22.40;90.40;;;;;;6250524;22;20521;-92
2022/06/11 15:00:18;;;;;;;4.15;0.68;;;22.30;89.10;;;;;;6250381;22;20020;-92